sensor_id;sensor_type;location;lat;lon;timestamp;P1;durP1;ratioP1;P2;durP2;ratioP2
20629;SDS011;17386;43.846;25.950;2023-03-01T00:00:41;27.05;;;11.32;;
20629;SDS011;17386;43.846;25.950;2023-03-01T00:03:06;27.55;;;11.32;;
20629;SDS011;17386;43.846;25.950;2023-03-01T00:05:32;28.17;;;11.07;;
20629;SDS011;17386;43.846;25.950;2023-03-01T00:07:57;26.77;;;10.98;;
20629;SDS011;17386;43.846;25.950;2023-03-01T00:10:23;25.25;;;10.57;;
20629;SDS011;17386;43.846;25.950;2023-03-01T00:12:48;25.65;;;9.90;;
20629;SDS011;17386;43.846;25.950;2023-03-01T00:15:14;27.75;;;11.20;;
20629;SDS011;17386;43.846;25.950;2023-03-01T00:17:39;28.20;;;10.30;;
20629;SDS011;17386;43.846;25.950;2023-03-01T00:20:05;27.73;;;10.82;;
20629;SDS011;17386;43.846;25.950;2023-03-01T00:22:35;28.67;;;11.35;;
20629;SDS011;17386;43.846;25.950;2023-03-01T00:25:01;27.48;;;11.05;;
20629;SDS011;17386;43.846;25.950;2023-03-01T00:27:26;28.50;;;11.57;;
20629;SDS011;17386;43.846;25.950;2023-03-01T00:29:52;26.30;;;10.77;;
20629;SDS011;17386;43.846;25.950;2023-03-01T00:32:17;24.88;;;11.10;;
20629;SDS011;17386;43.846;25.950;2023-03-01T00:34:42;29.25;;;11.48;;
20629;SDS011;17386;43.846;25.950;2023-03-01T00:37:20;28.80;;;11.80;;
20629;SDS011;17386;43.846;25.950;2023-03-01T00:39:46;30.85;;;11.95;;
20629;SDS011;17386;43.846;25.950;2023-03-01T00:42:12;31.25;;;12.07;;
20629;SDS011;17386;43.846;25.950;2023-03-01T00:44:37;31.15;;;12.27;;
20629;SDS011;17386;43.846;25.950;2023-03-01T00:47:02;28.85;;;11.23;;
20629;SDS011;17386;43.846;25.950;2023-03-01T00:49:28;28.35;;;11.82;;
20629;SDS011;17386;43.846;25.950;2023-03-01T00:51:53;30.92;;;12.38;;
20629;SDS011;17386;43.846;25.950;2023-03-01T00:54:19;28.35;;;10.52;;
20629;SDS011;17386;43.846;25.950;2023-03-01T00:56:44;28.17;;;11.38;;
20629;SDS011;17386;43.846;25.950;2023-03-01T00:59:09;30.73;;;12.75;;
20629;SDS011;17386;43.846;25.950;2023-03-01T01:01:35;29.85;;;12.02;;
20629;SDS011;17386;43.846;25.950;2023-03-01T01:04:01;38.40;;;14.18;;
20629;SDS011;17386;43.846;25.950;2023-03-01T01:06:30;39.15;;;14.13;;
20629;SDS011;17386;43.846;25.950;2023-03-01T01:08:58;36.17;;;14.38;;
20629;SDS011;17386;43.846;25.950;2023-03-01T01:11:24;36.42;;;14.25;;
20629;SDS011;17386;43.846;25.950;2023-03-01T01:13:51;37.45;;;14.80;;
20629;SDS011;17386;43.846;25.950;2023-03-01T01:16:20;37.08;;;14.63;;
20629;SDS011;17386;43.846;25.950;2023-03-01T01:18:46;41.30;;;15.77;;
20629;SDS011;17386;43.846;25.950;2023-03-01T01:21:13;44.42;;;16.33;;
20629;SDS011;17386;43.846;25.950;2023-03-01T01:23:40;50.70;;;18.20;;
20629;SDS011;17386;43.846;25.950;2023-03-01T01:26:08;49.58;;;17.48;;
20629;SDS011;17386;43.846;25.950;2023-03-01T01:28:36;57.78;;;19.38;;
20629;SDS011;17386;43.846;25.950;2023-03-01T01:31:02;53.80;;;18.27;;
20629;SDS011;17386;43.846;25.950;2023-03-01T01:33:28;55.78;;;19.30;;
20629;SDS011;17386;43.846;25.950;2023-03-01T01:35:53;56.08;;;18.20;;
20629;SDS011;17386;43.846;25.950;2023-03-01T01:38:19;49.60;;;17.48;;
20629;SDS011;17386;43.846;25.950;2023-03-01T01:40:44;53.40;;;17.92;;
20629;SDS011;17386;43.846;25.950;2023-03-01T01:46:03;47.28;;;16.60;;
20629;SDS011;17386;43.846;25.950;2023-03-01T01:48:45;46.80;;;17.23;;
20629;SDS011;17386;43.846;25.950;2023-03-01T01:51:13;51.88;;;17.23;;
20629;SDS011;17386;43.846;25.950;2023-03-01T01:53:44;50.75;;;17.52;;
20629;SDS011;17386;43.846;25.950;2023-03-01T01:56:15;46.30;;;16.92;;
20629;SDS011;17386;43.846;25.950;2023-03-01T01:58:41;44.90;;;17.08;;
20629;SDS011;17386;43.846;25.950;2023-03-01T02:01:08;47.20;;;16.95;;
20629;SDS011;17386;43.846;25.950;2023-03-01T02:03:34;42.22;;;15.32;;
20629;SDS011;17386;43.846;25.950;2023-03-01T02:06:10;43.90;;;15.50;;
20629;SDS011;17386;43.846;25.950;2023-03-01T02:08:37;47.83;;;16.95;;
20629;SDS011;17386;43.846;25.950;2023-03-01T02:11:06;40.80;;;15.80;;
20629;SDS011;17386;43.846;25.950;2023-03-01T02:13:32;46.78;;;16.42;;
20629;SDS011;17386;43.846;25.950;2023-03-01T02:15:59;46.05;;;17.17;;
20629;SDS011;17386;43.846;25.950;2023-03-01T02:18:28;45.25;;;15.63;;
20629;SDS011;17386;43.846;25.950;2023-03-01T02:23:28;44.85;;;16.90;;
20629;SDS011;17386;43.846;25.950;2023-03-01T02:26:07;44.60;;;17.10;;
20629;SDS011;17386;43.846;25.950;2023-03-01T02:28:49;46.42;;;16.65;;
20629;SDS011;17386;43.846;25.950;2023-03-01T02:31:16;44.58;;;16.30;;
20629;SDS011;17386;43.846;25.950;2023-03-01T02:34:03;45.08;;;16.02;;
20629;SDS011;17386;43.846;25.950;2023-03-01T02:36:51;51.05;;;17.40;;
20629;SDS011;17386;43.846;25.950;2023-03-01T02:39:19;44.75;;;15.55;;
20629;SDS011;17386;43.846;25.950;2023-03-01T02:41:51;45.17;;;17.55;;
20629;SDS011;17386;43.846;25.950;2023-03-01T02:44:19;46.83;;;16.02;;
20629;SDS011;17386;43.846;25.950;2023-03-01T02:46:47;45.85;;;17.08;;
20629;SDS011;17386;43.846;25.950;2023-03-01T02:49:21;46.83;;;18.13;;
20629;SDS011;17386;43.846;25.950;2023-03-01T02:57:31;42.22;;;16.73;;
20629;SDS011;17386;43.846;25.950;2023-03-01T02:59:59;48.67;;;17.02;;
20629;SDS011;17386;43.846;25.950;2023-03-01T03:02:32;43.58;;;16.27;;
20629;SDS011;17386;43.846;25.950;2023-03-01T03:07:33;41.58;;;15.85;;
20629;SDS011;17386;43.846;25.950;2023-03-01T03:10:03;43.55;;;16.55;;
20629;SDS011;17386;43.846;25.950;2023-03-01T03:12:29;47.22;;;17.83;;
20629;SDS011;17386;43.846;25.950;2023-03-01T03:14:55;48.60;;;18.70;;
20629;SDS011;17386;43.846;25.950;2023-03-01T03:17:20;49.13;;;17.38;;
20629;SDS011;17386;43.846;25.950;2023-03-01T03:19:46;44.33;;;18.02;;
20629;SDS011;17386;43.846;25.950;2023-03-01T03:22:12;50.72;;;18.25;;
20629;SDS011;17386;43.846;25.950;2023-03-01T03:24:37;46.63;;;17.88;;
20629;SDS011;17386;43.846;25.950;2023-03-01T03:27:03;44.40;;;17.27;;
20629;SDS011;17386;43.846;25.950;2023-03-01T03:29:30;45.80;;;17.65;;
20629;SDS011;17386;43.846;25.950;2023-03-01T03:31:55;49.58;;;18.20;;
20629;SDS011;17386;43.846;25.950;2023-03-01T03:34:21;48.90;;;18.13;;
20629;SDS011;17386;43.846;25.950;2023-03-01T03:36:46;51.67;;;17.98;;
20629;SDS011;17386;43.846;25.950;2023-03-01T03:39:12;52.20;;;18.50;;
20629;SDS011;17386;43.846;25.950;2023-03-01T03:41:37;48.75;;;18.52;;
20629;SDS011;17386;43.846;25.950;2023-03-01T03:44:02;42.22;;;16.98;;
20629;SDS011;17386;43.846;25.950;2023-03-01T03:46:28;54.38;;;18.90;;
20629;SDS011;17386;43.846;25.950;2023-03-01T03:48:53;47.13;;;18.45;;
20629;SDS011;17386;43.846;25.950;2023-03-01T03:51:19;50.25;;;18.27;;
20629;SDS011;17386;43.846;25.950;2023-03-01T03:53:44;51.03;;;18.05;;
20629;SDS011;17386;43.846;25.950;2023-03-01T03:56:10;45.88;;;16.90;;
20629;SDS011;17386;43.846;25.950;2023-03-01T03:58:36;48.97;;;17.80;;
20629;SDS011;17386;43.846;25.950;2023-03-01T04:01:02;49.05;;;18.40;;
20629;SDS011;17386;43.846;25.950;2023-03-01T04:03:28;45.75;;;17.73;;
20629;SDS011;17386;43.846;25.950;2023-03-01T04:05:56;49.78;;;17.88;;
20629;SDS011;17386;43.846;25.950;2023-03-01T04:08:24;49.53;;;17.85;;
20629;SDS011;17386;43.846;25.950;2023-03-01T04:10:51;50.30;;;17.38;;
20629;SDS011;17386;43.846;25.950;2023-03-01T04:13:20;47.83;;;17.83;;
20629;SDS011;17386;43.846;25.950;2023-03-01T04:15:53;48.83;;;16.88;;
20629;SDS011;17386;43.846;25.950;2023-03-01T04:18:20;46.10;;;16.45;;
20629;SDS011;17386;43.846;25.950;2023-03-01T04:20:47;46.95;;;16.95;;
20629;SDS011;17386;43.846;25.950;2023-03-01T04:23:13;45.33;;;17.83;;
20629;SDS011;17386;43.846;25.950;2023-03-01T04:28:29;45.13;;;15.68;;
20629;SDS011;17386;43.846;25.950;2023-03-01T04:31:02;49.92;;;17.48;;
20629;SDS011;17386;43.846;25.950;2023-03-01T04:33:38;43.75;;;17.42;;
20629;SDS011;17386;43.846;25.950;2023-03-01T04:36:15;49.70;;;18.52;;
20629;SDS011;17386;43.846;25.950;2023-03-01T04:38:41;52.92;;;18.38;;
20629;SDS011;17386;43.846;25.950;2023-03-01T04:41:08;54.33;;;18.75;;
20629;SDS011;17386;43.846;25.950;2023-03-01T04:43:35;52.65;;;18.52;;
20629;SDS011;17386;43.846;25.950;2023-03-01T04:46:02;50.85;;;19.23;;
20629;SDS011;17386;43.846;25.950;2023-03-01T04:48:31;43.90;;;16.73;;
20629;SDS011;17386;43.846;25.950;2023-03-01T04:50:58;46.55;;;17.35;;
20629;SDS011;17386;43.846;25.950;2023-03-01T04:53:24;42.22;;;17.13;;
20629;SDS011;17386;43.846;25.950;2023-03-01T04:55:50;47.65;;;17.98;;
20629;SDS011;17386;43.846;25.950;2023-03-01T04:58:15;43.70;;;16.65;;
20629;SDS011;17386;43.846;25.950;2023-03-01T05:00:41;49.00;;;17.67;;
20629;SDS011;17386;43.846;25.950;2023-03-01T05:03:07;45.33;;;17.10;;
20629;SDS011;17386;43.846;25.950;2023-03-01T05:05:35;42.83;;;16.58;;
20629;SDS011;17386;43.846;25.950;2023-03-01T05:08:06;46.40;;;17.80;;
20629;SDS011;17386;43.846;25.950;2023-03-01T05:10:33;40.22;;;16.38;;
20629;SDS011;17386;43.846;25.950;2023-03-01T05:13:01;44.40;;;16.45;;
20629;SDS011;17386;43.846;25.950;2023-03-01T05:15:29;49.40;;;18.02;;
20629;SDS011;17386;43.846;25.950;2023-03-01T05:17:57;47.90;;;16.63;;
20629;SDS011;17386;43.846;25.950;2023-03-01T05:22:51;41.80;;;15.05;;
20629;SDS011;17386;43.846;25.950;2023-03-01T05:25:16;45.47;;;16.98;;
20629;SDS011;17386;43.846;25.950;2023-03-01T05:27:42;50.65;;;18.48;;
20629;SDS011;17386;43.846;25.950;2023-03-01T05:30:08;43.03;;;16.08;;
20629;SDS011;17386;43.846;25.950;2023-03-01T05:32:44;46.78;;;17.25;;
20629;SDS011;17386;43.846;25.950;2023-03-01T05:35:14;45.75;;;17.00;;
20629;SDS011;17386;43.846;25.950;2023-03-01T05:37:45;47.50;;;17.48;;
20629;SDS011;17386;43.846;25.950;2023-03-01T05:40:14;54.20;;;21.30;;
20629;SDS011;17386;43.846;25.950;2023-03-01T05:42:44;44.05;;;16.73;;
20629;SDS011;17386;43.846;25.950;2023-03-01T05:45:18;50.28;;;17.98;;
20629;SDS011;17386;43.846;25.950;2023-03-01T05:47:45;49.13;;;19.60;;
20629;SDS011;17386;43.846;25.950;2023-03-01T05:52:37;49.22;;;17.65;;
20629;SDS011;17386;43.846;25.950;2023-03-01T05:55:03;49.80;;;17.15;;
20629;SDS011;17386;43.846;25.950;2023-03-01T05:57:29;49.53;;;17.23;;
20629;SDS011;17386;43.846;25.950;2023-03-01T05:59:54;48.50;;;18.67;;
20629;SDS011;17386;43.846;25.950;2023-03-01T06:02:20;46.70;;;17.15;;
20629;SDS011;17386;43.846;25.950;2023-03-01T06:04:45;49.17;;;18.40;;
20629;SDS011;17386;43.846;25.950;2023-03-01T06:07:11;51.13;;;17.80;;
20629;SDS011;17386;43.846;25.950;2023-03-01T06:09:36;50.47;;;18.45;;
20629;SDS011;17386;43.846;25.950;2023-03-01T06:12:02;51.95;;;19.45;;
20629;SDS011;17386;43.846;25.950;2023-03-01T06:14:28;53.08;;;20.02;;
20629;SDS011;17386;43.846;25.950;2023-03-01T06:16:53;47.63;;;17.48;;
20629;SDS011;17386;43.846;25.950;2023-03-01T06:19:19;56.92;;;19.42;;
20629;SDS011;17386;43.846;25.950;2023-03-01T06:21:44;49.33;;;17.73;;
20629;SDS011;17386;43.846;25.950;2023-03-01T06:24:09;56.47;;;19.27;;
20629;SDS011;17386;43.846;25.950;2023-03-01T06:26:35;57.53;;;19.90;;
20629;SDS011;17386;43.846;25.950;2023-03-01T06:29:00;60.22;;;23.15;;
20629;SDS011;17386;43.846;25.950;2023-03-01T06:31:26;55.85;;;20.55;;
20629;SDS011;17386;43.846;25.950;2023-03-01T06:33:51;63.47;;;23.70;;
20629;SDS011;17386;43.846;25.950;2023-03-01T06:36:16;58.88;;;21.30;;
20629;SDS011;17386;43.846;25.950;2023-03-01T06:38:43;57.85;;;19.90;;
20629;SDS011;17386;43.846;25.950;2023-03-01T06:41:09;48.88;;;18.60;;
20629;SDS011;17386;43.846;25.950;2023-03-01T06:43:35;55.83;;;20.27;;
20629;SDS011;17386;43.846;25.950;2023-03-01T06:46:03;55.08;;;20.20;;
20629;SDS011;17386;43.846;25.950;2023-03-01T06:48:30;58.05;;;20.15;;
20629;SDS011;17386;43.846;25.950;2023-03-01T06:50:57;50.10;;;18.33;;
20629;SDS011;17386;43.846;25.950;2023-03-01T06:53:23;52.05;;;19.27;;
20629;SDS011;17386;43.846;25.950;2023-03-01T06:55:53;51.63;;;19.67;;
20629;SDS011;17386;43.846;25.950;2023-03-01T06:58:22;53.90;;;19.20;;
20629;SDS011;17386;43.846;25.950;2023-03-01T07:00:48;45.00;;;15.98;;
20629;SDS011;17386;43.846;25.950;2023-03-01T07:03:14;54.67;;;18.90;;
20629;SDS011;17386;43.846;25.950;2023-03-01T07:05:39;48.55;;;17.48;;
20629;SDS011;17386;43.846;25.950;2023-03-01T07:08:05;52.25;;;19.08;;
20629;SDS011;17386;43.846;25.950;2023-03-01T07:10:30;50.47;;;20.13;;
20629;SDS011;17386;43.846;25.950;2023-03-01T07:12:56;61.25;;;25.67;;
20629;SDS011;17386;43.846;25.950;2023-03-01T07:15:23;52.28;;;20.63;;
20629;SDS011;17386;43.846;25.950;2023-03-01T07:17:49;55.95;;;20.15;;
20629;SDS011;17386;43.846;25.950;2023-03-01T07:20:15;50.10;;;18.13;;
20629;SDS011;17386;43.846;25.950;2023-03-01T07:22:41;54.20;;;19.15;;
20629;SDS011;17386;43.846;25.950;2023-03-01T07:25:07;53.42;;;17.92;;
20629;SDS011;17386;43.846;25.950;2023-03-01T07:27:34;59.65;;;20.15;;
20629;SDS011;17386;43.846;25.950;2023-03-01T07:29:59;53.65;;;19.67;;
20629;SDS011;17386;43.846;25.950;2023-03-01T07:32:24;58.60;;;20.65;;
20629;SDS011;17386;43.846;25.950;2023-03-01T07:34:50;55.70;;;18.90;;
20629;SDS011;17386;43.846;25.950;2023-03-01T07:37:16;58.85;;;20.15;;
20629;SDS011;17386;43.846;25.950;2023-03-01T07:39:42;50.28;;;18.55;;
20629;SDS011;17386;43.846;25.950;2023-03-01T07:42:07;51.78;;;19.70;;
20629;SDS011;17386;43.846;25.950;2023-03-01T07:44:33;51.55;;;20.30;;
20629;SDS011;17386;43.846;25.950;2023-03-01T07:46:59;55.30;;;20.08;;
20629;SDS011;17386;43.846;25.950;2023-03-01T07:49:25;50.50;;;18.80;;
20629;SDS011;17386;43.846;25.950;2023-03-01T07:51:54;53.45;;;19.92;;
20629;SDS011;17386;43.846;25.950;2023-03-01T07:54:20;58.90;;;22.00;;
20629;SDS011;17386;43.846;25.950;2023-03-01T07:56:45;47.17;;;17.20;;
20629;SDS011;17386;43.846;25.950;2023-03-01T07:59:11;49.90;;;18.77;;
20629;SDS011;17386;43.846;25.950;2023-03-01T08:01:36;59.42;;;21.13;;
20629;SDS011;17386;43.846;25.950;2023-03-01T08:04:01;49.50;;;18.30;;
20629;SDS011;17386;43.846;25.950;2023-03-01T08:06:27;48.83;;;19.05;;
20629;SDS011;17386;43.846;25.950;2023-03-01T08:08:53;52.90;;;19.00;;
20629;SDS011;17386;43.846;25.950;2023-03-01T08:11:20;52.50;;;18.25;;
20629;SDS011;17386;43.846;25.950;2023-03-01T08:13:49;51.42;;;18.70;;
20629;SDS011;17386;43.846;25.950;2023-03-01T08:16:15;46.70;;;18.48;;
20629;SDS011;17386;43.846;25.950;2023-03-01T08:18:41;46.90;;;17.27;;
20629;SDS011;17386;43.846;25.950;2023-03-01T08:21:08;47.65;;;18.42;;
20629;SDS011;17386;43.846;25.950;2023-03-01T08:23:35;48.65;;;18.45;;
20629;SDS011;17386;43.846;25.950;2023-03-01T08:26:11;47.38;;;19.38;;
20629;SDS011;17386;43.846;25.950;2023-03-01T08:28:39;45.00;;;17.08;;
20629;SDS011;17386;43.846;25.950;2023-03-01T08:31:15;51.50;;;18.92;;
20629;SDS011;17386;43.846;25.950;2023-03-01T08:36:20;50.35;;;17.13;;
20629;SDS011;17386;43.846;25.950;2023-03-01T08:38:56;43.47;;;17.92;;
20629;SDS011;17386;43.846;25.950;2023-03-01T08:41:22;43.45;;;15.93;;
20629;SDS011;17386;43.846;25.950;2023-03-01T08:43:48;48.75;;;17.77;;
20629;SDS011;17386;43.846;25.950;2023-03-01T08:46:14;44.88;;;17.85;;
20629;SDS011;17386;43.846;25.950;2023-03-01T08:48:39;44.95;;;17.42;;
20629;SDS011;17386;43.846;25.950;2023-03-01T08:51:15;46.08;;;17.02;;
20629;SDS011;17386;43.846;25.950;2023-03-01T08:53:42;43.70;;;16.20;;
20629;SDS011;17386;43.846;25.950;2023-03-01T08:56:08;45.78;;;17.00;;
20629;SDS011;17386;43.846;25.950;2023-03-01T08:58:34;37.58;;;15.25;;
20629;SDS011;17386;43.846;25.950;2023-03-01T09:01:00;39.55;;;15.93;;
20629;SDS011;17386;43.846;25.950;2023-03-01T09:03:26;43.40;;;17.63;;
20629;SDS011;17386;43.846;25.950;2023-03-01T09:05:52;50.30;;;18.77;;
20629;SDS011;17386;43.846;25.950;2023-03-01T09:08:18;51.97;;;18.52;;
20629;SDS011;17386;43.846;25.950;2023-03-01T09:10:44;45.38;;;17.98;;
20629;SDS011;17386;43.846;25.950;2023-03-01T09:13:10;42.42;;;17.05;;
20629;SDS011;17386;43.846;25.950;2023-03-01T09:15:38;50.88;;;18.90;;
20629;SDS011;17386;43.846;25.950;2023-03-01T09:18:04;51.80;;;19.23;;
20629;SDS011;17386;43.846;25.950;2023-03-01T09:20:30;46.53;;;18.15;;
20629;SDS011;17386;43.846;25.950;2023-03-01T09:22:57;58.50;;;21.80;;
20629;SDS011;17386;43.846;25.950;2023-03-01T09:25:23;52.13;;;19.20;;
20629;SDS011;17386;43.846;25.950;2023-03-01T09:27:52;54.78;;;18.98;;
20629;SDS011;17386;43.846;25.950;2023-03-01T09:30:18;44.78;;;17.75;;
20629;SDS011;17386;43.846;25.950;2023-03-01T09:32:44;44.33;;;17.17;;
20629;SDS011;17386;43.846;25.950;2023-03-01T09:35:10;47.70;;;18.10;;
20629;SDS011;17386;43.846;25.950;2023-03-01T09:37:36;47.72;;;18.63;;
20629;SDS011;17386;43.846;25.950;2023-03-01T09:40:03;46.63;;;17.52;;
20629;SDS011;17386;43.846;25.950;2023-03-01T09:45:04;45.95;;;17.92;;
20629;SDS011;17386;43.846;25.950;2023-03-01T09:47:35;44.45;;;16.80;;
20629;SDS011;17386;43.846;25.950;2023-03-01T09:50:11;46.80;;;16.63;;
20629;SDS011;17386;43.846;25.950;2023-03-01T09:52:44;46.13;;;17.13;;
20629;SDS011;17386;43.846;25.950;2023-03-01T09:55:15;46.45;;;17.30;;
20629;SDS011;17386;43.846;25.950;2023-03-01T09:57:50;40.55;;;16.95;;
20629;SDS011;17386;43.846;25.950;2023-03-01T10:00:36;38.17;;;15.07;;
20629;SDS011;17386;43.846;25.950;2023-03-01T10:03:12;46.42;;;18.15;;
20629;SDS011;17386;43.846;25.950;2023-03-01T10:08:41;43.50;;;16.67;;
20629;SDS011;17386;43.846;25.950;2023-03-01T10:11:54;42.20;;;17.00;;
20629;SDS011;17386;43.846;25.950;2023-03-01T10:16:53;38.08;;;15.27;;
20629;SDS011;17386;43.846;25.950;2023-03-01T10:22:03;43.63;;;17.13;;
20629;SDS011;17386;43.846;25.950;2023-03-01T10:24:38;40.92;;;15.82;;
20629;SDS011;17386;43.846;25.950;2023-03-01T10:27:15;43.50;;;16.52;;
20629;SDS011;17386;43.846;25.950;2023-03-01T10:32:32;37.78;;;15.10;;
20629;SDS011;17386;43.846;25.950;2023-03-01T10:34:57;35.33;;;13.82;;
20629;SDS011;17386;43.846;25.950;2023-03-01T10:37:23;40.78;;;15.25;;
20629;SDS011;17386;43.846;25.950;2023-03-01T10:40:04;34.60;;;14.57;;
20629;SDS011;17386;43.846;25.950;2023-03-01T10:42:46;37.75;;;14.68;;
20629;SDS011;17386;43.846;25.950;2023-03-01T10:48:14;38.70;;;14.48;;
20629;SDS011;17386;43.846;25.950;2023-03-01T10:51:04;31.08;;;12.57;;
20629;SDS011;17386;43.846;25.950;2023-03-01T10:53:41;35.10;;;13.32;;
20629;SDS011;17386;43.846;25.950;2023-03-01T10:56:09;38.58;;;13.77;;
20629;SDS011;17386;43.846;25.950;2023-03-01T10:58:40;33.78;;;12.73;;
20629;SDS011;17386;43.846;25.950;2023-03-01T11:03:55;33.33;;;11.45;;
20629;SDS011;17386;43.846;25.950;2023-03-01T11:06:31;27.60;;;10.23;;
20629;SDS011;17386;43.846;25.950;2023-03-01T11:08:57;38.53;;;12.80;;
20629;SDS011;17386;43.846;25.950;2023-03-01T11:11:54;30.55;;;11.45;;
20629;SDS011;17386;43.846;25.950;2023-03-01T11:14:22;26.02;;;11.57;;
20629;SDS011;17386;43.846;25.950;2023-03-01T11:16:59;32.97;;;12.10;;
20629;SDS011;17386;43.846;25.950;2023-03-01T11:19:26;33.05;;;13.18;;
20629;SDS011;17386;43.846;25.950;2023-03-01T11:21:59;30.45;;;11.68;;
20629;SDS011;17386;43.846;25.950;2023-03-01T11:24:31;30.42;;;10.90;;
20629;SDS011;17386;43.846;25.950;2023-03-01T11:27:02;24.92;;;10.38;;
20629;SDS011;17386;43.846;25.950;2023-03-01T11:29:38;29.02;;;10.70;;
20629;SDS011;17386;43.846;25.950;2023-03-01T11:32:10;24.65;;;9.52;;
20629;SDS011;17386;43.846;25.950;2023-03-01T11:34:40;27.15;;;10.45;;
20629;SDS011;17386;43.846;25.950;2023-03-01T11:37:12;30.00;;;10.70;;
20629;SDS011;17386;43.846;25.950;2023-03-01T11:39:51;37.25;;;12.10;;
20629;SDS011;17386;43.846;25.950;2023-03-01T11:42:25;30.50;;;11.50;;
20629;SDS011;17386;43.846;25.950;2023-03-01T11:45:06;29.95;;;12.15;;
20629;SDS011;17386;43.846;25.950;2023-03-01T12:01:24;73.85;;;26.27;;
20629;SDS011;17386;43.846;25.950;2023-03-01T12:19:58;26.10;;;11.15;;
20629;SDS011;17386;43.846;25.950;2023-03-01T12:36:32;32.30;;;12.90;;
20629;SDS011;17386;43.846;25.950;2023-03-01T12:47:44;34.13;;;13.30;;
20629;SDS011;17386;43.846;25.950;2023-03-01T12:53:32;33.47;;;12.20;;
20629;SDS011;17386;43.846;25.950;2023-03-01T12:56:02;32.72;;;13.32;;
20629;SDS011;17386;43.846;25.950;2023-03-01T13:11:53;26.15;;;11.55;;
20629;SDS011;17386;43.846;25.950;2023-03-01T13:14:44;32.38;;;11.90;;
20629;SDS011;17386;43.846;25.950;2023-03-01T13:17:28;27.65;;;11.93;;
20629;SDS011;17386;43.846;25.950;2023-03-01T13:19:57;25.90;;;11.07;;
20629;SDS011;17386;43.846;25.950;2023-03-01T13:22:30;28.35;;;10.52;;
20629;SDS011;17386;43.846;25.950;2023-03-01T13:27:43;24.02;;;9.50;;
20629;SDS011;17386;43.846;25.950;2023-03-01T13:35:58;24.90;;;9.93;;
20629;SDS011;17386;43.846;25.950;2023-03-01T13:44:21;30.55;;;11.48;;
20629;SDS011;17386;43.846;25.950;2023-03-01T13:46:51;26.52;;;10.68;;
20629;SDS011;17386;43.846;25.950;2023-03-01T13:49:22;30.08;;;12.25;;
20629;SDS011;17386;43.846;25.950;2023-03-01T13:51:52;33.40;;;14.35;;
20629;SDS011;17386;43.846;25.950;2023-03-01T13:54:28;32.70;;;12.48;;
20629;SDS011;17386;43.846;25.950;2023-03-01T13:56:58;26.30;;;10.60;;
20629;SDS011;17386;43.846;25.950;2023-03-01T13:59:26;29.73;;;13.05;;
20629;SDS011;17386;43.846;25.950;2023-03-01T14:01:55;33.38;;;12.80;;
20629;SDS011;17386;43.846;25.950;2023-03-01T14:04:29;29.23;;;11.05;;
20629;SDS011;17386;43.846;25.950;2023-03-01T14:07:19;30.33;;;12.55;;
20629;SDS011;17386;43.846;25.950;2023-03-01T14:09:44;28.15;;;12.30;;
20629;SDS011;17386;43.846;25.950;2023-03-01T14:20:43;27.10;;;10.73;;
20629;SDS011;17386;43.846;25.950;2023-03-01T14:23:18;29.25;;;11.88;;
20629;SDS011;17386;43.846;25.950;2023-03-01T14:25:50;26.08;;;10.65;;
20629;SDS011;17386;43.846;25.950;2023-03-01T14:30:53;28.23;;;11.27;;
20629;SDS011;17386;43.846;25.950;2023-03-01T14:33:22;30.25;;;12.30;;
20629;SDS011;17386;43.846;25.950;2023-03-01T14:35:55;33.55;;;13.43;;
20629;SDS011;17386;43.846;25.950;2023-03-01T14:38:30;30.27;;;12.45;;
20629;SDS011;17386;43.846;25.950;2023-03-01T14:40:57;28.70;;;12.52;;
20629;SDS011;17386;43.846;25.950;2023-03-01T14:43:29;32.80;;;14.52;;
20629;SDS011;17386;43.846;25.950;2023-03-01T14:45:55;37.55;;;15.02;;
20629;SDS011;17386;43.846;25.950;2023-03-01T14:48:21;47.45;;;16.50;;
20629;SDS011;17386;43.846;25.950;2023-03-01T14:50:47;36.33;;;13.75;;
20629;SDS011;17386;43.846;25.950;2023-03-01T14:53:16;36.20;;;13.52;;
20629;SDS011;17386;43.846;25.950;2023-03-01T14:55:47;30.95;;;12.57;;
20629;SDS011;17386;43.846;25.950;2023-03-01T14:58:18;37.15;;;13.82;;
20629;SDS011;17386;43.846;25.950;2023-03-01T15:01:04;40.25;;;17.55;;
20629;SDS011;17386;43.846;25.950;2023-03-01T15:03:35;32.45;;;13.10;;
20629;SDS011;17386;43.846;25.950;2023-03-01T15:06:03;32.00;;;13.75;;
20629;SDS011;17386;43.846;25.950;2023-03-01T15:08:30;32.95;;;14.38;;
20629;SDS011;17386;43.846;25.950;2023-03-01T15:11:33;31.38;;;12.88;;
20629;SDS011;17386;43.846;25.950;2023-03-01T15:13:55;48.75;;;19.08;;
20629;SDS011;17386;43.846;25.950;2023-03-01T15:16:22;29.98;;;13.50;;
20629;SDS011;17386;43.846;25.950;2023-03-01T15:18:49;33.92;;;13.18;;
20629;SDS011;17386;43.846;25.950;2023-03-01T15:23:57;30.25;;;12.50;;
20629;SDS011;17386;43.846;25.950;2023-03-01T15:28:52;32.28;;;13.68;;
20629;SDS011;17386;43.846;25.950;2023-03-01T15:31:32;38.28;;;13.68;;
20629;SDS011;17386;43.846;25.950;2023-03-01T15:34:22;40.63;;;16.02;;
20629;SDS011;17386;43.846;25.950;2023-03-01T15:36:58;32.80;;;13.77;;
20629;SDS011;17386;43.846;25.950;2023-03-01T15:39:33;33.05;;;13.68;;
20629;SDS011;17386;43.846;25.950;2023-03-01T15:42:05;27.05;;;11.93;;
20629;SDS011;17386;43.846;25.950;2023-03-01T15:44:33;32.53;;;13.73;;
20629;SDS011;17386;43.846;25.950;2023-03-01T15:47:05;32.55;;;13.50;;
20629;SDS011;17386;43.846;25.950;2023-03-01T15:49:47;29.08;;;13.82;;
20629;SDS011;17386;43.846;25.950;2023-03-01T15:52:23;27.38;;;12.65;;
20629;SDS011;17386;43.846;25.950;2023-03-01T15:55:05;32.38;;;13.05;;
20629;SDS011;17386;43.846;25.950;2023-03-01T15:57:40;38.65;;;15.43;;
20629;SDS011;17386;43.846;25.950;2023-03-01T16:00:05;30.75;;;13.05;;
20629;SDS011;17386;43.846;25.950;2023-03-01T16:02:36;48.30;;;19.70;;
20629;SDS011;17386;43.846;25.950;2023-03-01T16:05:03;45.03;;;21.65;;
20629;SDS011;17386;43.846;25.950;2023-03-01T16:07:28;47.88;;;20.25;;
20629;SDS011;17386;43.846;25.950;2023-03-01T16:09:54;42.50;;;16.98;;
20629;SDS011;17386;43.846;25.950;2023-03-01T16:12:19;36.22;;;15.05;;
20629;SDS011;17386;43.846;25.950;2023-03-01T16:14:46;35.95;;;14.98;;
20629;SDS011;17386;43.846;25.950;2023-03-01T16:17:13;31.88;;;14.75;;
20629;SDS011;17386;43.846;25.950;2023-03-01T16:19:38;35.15;;;13.60;;
20629;SDS011;17386;43.846;25.950;2023-03-01T16:22:05;35.20;;;15.35;;
20629;SDS011;17386;43.846;25.950;2023-03-01T16:24:30;36.83;;;14.38;;
20629;SDS011;17386;43.846;25.950;2023-03-01T16:26:56;34.70;;;15.07;;
20629;SDS011;17386;43.846;25.950;2023-03-01T16:29:21;35.92;;;14.77;;
20629;SDS011;17386;43.846;25.950;2023-03-01T16:31:47;31.67;;;13.95;;
20629;SDS011;17386;43.846;25.950;2023-03-01T16:34:12;33.63;;;14.38;;
20629;SDS011;17386;43.846;25.950;2023-03-01T16:36:38;35.92;;;14.73;;
20629;SDS011;17386;43.846;25.950;2023-03-01T16:39:03;33.15;;;14.13;;
20629;SDS011;17386;43.846;25.950;2023-03-01T16:41:29;36.15;;;14.40;;